Spencer, MA

10:18 AM EDT on September 01, 2015 (GMT -0400)
Temple Valley | | Change Station
CLOSE
Current Station
Personal Weather Station
Location: Spencer, MA
Elevation: 881 ft
Nearby Weather Stations

Elev 881 ft 42.24 °N, 71.99 °W | Updated 2 seconds ago

Clear
Clear
78.4 °F
Feels Like 78 °F
N
1.6
Wind Variable Wind from WNW
Gusts 4.7 mph

Today
High -- | Low -- °F
--% Chance of Precip.
Yesterday
High -- | Low -- °F
Precip. -- in
6:12 AM 7:22 PM
Waning Gibbous, 88% visible
Pressure 30.08 in
Visibility 10.0 miles
Clouds Clear
Heat Index 78 °F
Dew Point 34 °F
Humidity 20%
Rainfall 0.00 in
Snow Depth Not available.
UV 3.0 out of 12
Pollen 9.50 out of 12
Air Quality Not available.
Flu Activity Not available.
METAR KORH 011354Z COR 10007KT 040V150 10SM CLR 23/14 A3009 RMK AO2 SLP184 T02330139
Pressure 30.08 in
Visibility 10.0 miles
Clouds Clear
Heat Index 78 °F
Dew Point 34 °F
Humidity 20%
Rainfall 0.00 in
Snow Depth Not available.
UV 3.0 out of 12
Pollen 9.50 out of 12
Air Quality Not available.
Flu Activity Not available.
METAR KORH 011354Z COR 10007KT 040V150 10SM CLR 23/14 A3009 RMK AO2 SLP184 T02330139

10-Day Weather Forecast

×

Almanac

Astronomy

Sep. 01, 2015 Rise Set
Actual Time
Civil Twilight
Nautical Twilight
Astronomical Twilight
Moon
Length of Visible Light
Length of Day
Tomorrow will be .
, % of the Moon is Illuminated

Today's Extremes

State Highs State Lows

Community

WunderPhotos

Upload Photos

1,851,512 photos uploaded!

WunderBlogs® & News

Nearby

Air Quality

  Air Quality AQ Index Pollutant
Not available.

Snow Depth

Station Depth Elevation

Earthquake Activity

City Distance Mag. Time & Date
Minimum magnitude displayed is 2.5.

Coastal Water Temperatures

Place Temperature

Stations

Nearby Weather Stations

Station Location Temp. Windchill Dew Point Humidity Wind Precip. Elev Updated Type